BVO - Bartlesville Muni

Pirep is a free, collaborative database of all public and private airports located within the United States. All pilots are welcome to contribute, edit, and improve any airport they have local knowledge about, no registration required.
Are you familiar with this airport? Help out other pilots by adding your local knowledge.
Uploaded photos will be licensed under a CC BY-SA 4.0 license. Please only upload photos you have the rights to use.
Tags
Public
Undocu­mented
METAR / TAF
Edit Tags
Food
Camping
Lodging
Car Rental
Bicycles
Swimming
Golfing
Fishing
Hot Springs
Museum
Flying Clubs
Airpark
Upcoming Events
No upcoming events. Is anything happening here soon?
*
*
*

Where exactly on/near the airport is this event taking place?

Is there a webpage with more information for this event?

Who should be contacted for more information?

What is this event all about?

Repeat every
Description
Transient Parking
Fuel Location
Landing & Tie-down Fees
Crew Car Availability
Flying Clubs
WiFi Access
Airport Statistics
Location: Bartlesville, OK
Elevation: 716ft
Sectional: Kansas City
Activation date: Nov 1938
Fuel: 100LL, A+ (prices)
Runway 17/35: 6,850ft
Access: Open to the public
Current Weather — VFR
  • Weather data is strictly informational and not for flight planning purposes.
  • METAR
    2024-05-24 19:53:00 CDT
    Ceiling Wind Temperature Dewpoint Weather Visbility
    Sky clear 350° @ 3kt 75°F 59°F N/A 10SM
    Raw: KBVO 250053Z AUTO 35003KT 10SM CLR 24/15 A2978 RMK AO2 SLP072 T02390150
  • TAF
    2024-05-24 19:00:00 CDT – 2024-05-25 11:00:00 CDT
    Ceiling Wind Weather Visbility
    Sky clear Variable N/A 6SM
    Clouds: Scattered @ 25,000ft
    Raw: KBVO 242320Z 2500/2524 VRB03KT P6SM SCT250 FM251600 15011G17KT P6SM SCT035 SCT250
  • TAF
    2024-05-25 11:00:00 CDT – 2024-05-25 19:00:00 CDT
    Ceiling Wind Weather Visbility
    Sky clear 150° @ 11kt, gusts 17kt N/A 6SM
    Clouds: Scattered @ 3,500ft, Scattered @ 25,000ft
    Raw: KBVO 242320Z 2500/2524 VRB03KT P6SM SCT250 FM251600 15011G17KT P6SM SCT035 SCT250
Click/tap to add an annotation marker to the map
Airport Webcams
No webcams added yet.
Direct links to live image URLs will be displayed inline on this page. URLs to separate webpages will be linked to.
URL:
Direct links to live image URLs will be displayed inline on this page. URLs to separate webpages will be linked to.
URL:
Remarks
  • Adzy freq 122.825 mnt m-f durg bus hrs.
  • For cd if una to ctc on fss freq, ctc kansas city artcc at 913-254-8508.
  • Actvt malsr rwy 17; reil rwy 35; papi rwy 17 & 35 - ctaf. mirl rwy 17/35 oper ss to sr & preset low intst, incr intst - ctaf.
  • For emerg only 918-350-0076.
Comments
Leave a comment What was your experience like at this airport?